Time,TemperatureF,DewpointF,PressureIn,WindDirection,WindDirectionDegrees,WindSpeedMPH,WindSpeedGustMPH,Humidity,HourlyPrecipIn,Conditions,Clouds,dailyrainin,SoftwareType,DateUTC
2013-03-16 00:01:00,41.0,38.0,-100.00,North,355,1.0,1.0,90,-99.99,,,-99.99,,2013-03-16 07:01:00,
2013-03-16 00:11:00,41.0,39.0,-100.00,North,355,1.0,1.0,91,-99.99,,,-99.99,,2013-03-16 07:11:00,
2013-03-16 00:22:00,40.0,38.0,-100.00,North,355,1.0,1.0,91,-99.99,,,-99.99,,2013-03-16 07:22:00,
2013-03-16 00:32:00,40.0,38.0,-100.00,North,355,1.0,1.0,91,-99.99,,,-99.99,,2013-03-16 07:32:00,
2013-03-16 00:42:00,40.0,38.0,-100.00,North,359,1.0,1.0,91,-99.99,,,-99.99,,2013-03-16 07:42:00,
2013-03-16 00:52:00,40.0,38.0,-100.00,NNW,338,1.0,2.0,91,-99.99,,,-99.99,,2013-03-16 07:52:00,
2013-03-16 01:02:00,40.0,38.0,-100.00,North,2,1.0,1.0,91,-99.99,,,-99.99,,2013-03-16 08:02:00,
2013-03-16 01:12:00,40.0,38.0,-100.00,SSW,200,1.0,1.0,91,-99.99,,,-99.99,,2013-03-16 08:12:00,
2013-03-16 01:22:00,40.0,37.0,-100.00,NW,318,1.0,1.0,90,-99.99,,,-99.99,,2013-03-16 08:22:00,
2013-03-16 01:42:00,40.0,37.0,-100.00,North,349,1.0,1.0,90,-99.99,,,-99.99,,2013-03-16 08:42:00,
2013-03-16 01:52:00,40.0,37.0,-100.00,NNW,341,1.0,1.0,90,-99.99,,,-99.99,,2013-03-16 08:52:00,
2013-03-16 02:01:00,40.0,37.0,-100.00,NNW,336,1.0,1.0,90,-99.99,,,-99.99,,2013-03-16 09:01:00,
2013-03-16 02:11:00,39.0,36.0,-100.00,NNW,336,1.0,1.0,90,-99.99,,,-99.99,,2013-03-16 09:11:00,
2013-03-16 02:22:00,39.0,36.0,-100.00,NNW,338,1.0,1.0,90,-99.99,,,-99.99,,2013-03-16 09:22:00,
2013-03-16 02:32:00,38.0,35.0,-100.00,NNW,340,1.0,2.0,90,-99.99,,,-99.99,,2013-03-16 09:32:00,
2013-03-16 02:42:00,38.0,36.0,-100.00,NNW,338,1.0,1.0,91,-99.99,,,-99.99,,2013-03-16 09:42:00,
2013-03-16 02:52:00,38.0,36.0,-100.00,NNW,330,1.0,1.0,91,-99.99,,,-99.99,,2013-03-16 09:52:00,
2013-03-16 03:03:00,38.0,36.0,-100.00,NNW,334,1.0,1.0,91,-99.99,,,-99.99,,2013-03-16 10:03:00,
2013-03-16 03:12:00,38.0,36.0,-100.00,NNW,336,1.0,1.0,91,-99.99,,,-99.99,,2013-03-16 10:12:00,
2013-03-16 03:22:00,38.0,36.0,-100.00,NNW,330,1.0,1.0,91,-99.99,,,-99.99,,2013-03-16 10:22:00,
2013-03-16 03:32:00,38.0,36.0,-100.00,NNW,331,1.0,1.0,91,-99.99,,,-99.99,,2013-03-16 10:32:00,
2013-03-16 03:42:00,38.0,36.0,-100.00,NNW,333,1.0,1.0,91,-99.99,,,-99.99,,2013-03-16 10:42:00,
2013-03-16 03:52:00,37.0,34.0,-100.00,NNW,335,1.0,2.0,90,-99.99,,,-99.99,,2013-03-16 10:52:00,
2013-03-16 04:02:00,37.0,34.0,-100.00,NNW,342,1.0,2.0,90,-99.99,,,-99.99,,2013-03-16 11:02:00,
2013-03-16 04:12:00,37.0,34.0,-100.00,NNW,342,1.0,1.0,90,-99.99,,,-99.99,,2013-03-16 11:12:00,
2013-03-16 04:22:00,37.0,35.0,-100.00,NNW,342,1.0,2.0,91,-99.99,,,-99.99,,2013-03-16 11:22:00,
2013-03-16 04:32:00,37.0,35.0,-100.00,NNW,342,1.0,2.0,91,-99.99,,,-99.99,,2013-03-16 11:32:00,
2013-03-16 04:42:00,37.0,35.0,-100.00,NNW,342,1.0,1.0,91,-99.99,,,-99.99,,2013-03-16 11:42:00,
2013-03-16 04:52:00,36.0,34.0,-100.00,NNW,341,1.0,2.0,91,-99.99,,,-99.99,,2013-03-16 11:52:00,
2013-03-16 05:01:00,36.0,34.0,-100.00,NNW,342,1.0,2.0,91,-99.99,,,-99.99,,2013-03-16 12:01:00,
2013-03-16 05:12:00,37.0,35.0,-100.00,NNW,342,1.0,1.0,91,-99.99,,,-99.99,,2013-03-16 12:12:00,
2013-03-16 05:22:00,36.0,33.0,-100.00,NNW,342,1.0,1.0,90,-99.99,,,-99.99,,2013-03-16 12:22:00,
2013-03-16 05:32:00,36.0,33.0,-100.00,NNW,342,1.0,1.0,90,-99.99,,,-99.99,,2013-03-16 12:32:00,
2013-03-16 05:42:00,36.0,33.0,-100.00,NNW,341,1.0,1.0,90,-99.99,,,-99.99,,2013-03-16 12:42:00,
2013-03-16 05:52:00,37.0,34.0,-100.00,NNW,343,1.0,2.0,89,-99.99,,,-99.99,,2013-03-16 12:52:00,
2013-03-16 06:02:00,36.0,33.0,-100.00,NNW,338,1.0,2.0,89,-99.99,,,-99.99,,2013-03-16 13:02:00,
2013-03-16 06:12:00,37.0,34.0,-100.00,East,84,1.0,1.0,90,-99.99,,,-99.99,,2013-03-16 13:12:00,
2013-03-16 06:22:00,36.0,33.0,-100.00,NNW,343,1.0,1.0,89,-99.99,,,-99.99,,2013-03-16 13:22:00,
2013-03-16 06:31:00,36.0,33.0,-100.00,North,358,1.0,2.0,89,-99.99,,,-99.99,,2013-03-16 13:31:00,
2013-03-16 06:41:00,36.0,33.0,-100.00,NW,317,1.0,2.0,89,-99.99,,,-99.99,,2013-03-16 13:41:00,
2013-03-16 06:52:00,36.0,33.0,-100.00,NNE,23,1.0,2.0,88,-99.99,,,-99.99,,2013-03-16 13:52:00,
2013-03-16 07:02:00,36.0,33.0,-100.00,North,4,1.0,2.0,88,-99.99,,,-99.99,,2013-03-16 14:02:00,
2013-03-16 07:12:00,36.0,33.0,-100.00,North,1,1.0,2.0,89,-99.99,,,-99.99,,2013-03-16 14:12:00,
2013-03-16 07:22:00,36.0,33.0,-100.00,NNW,333,1.0,2.0,87,-99.99,,,-99.99,,2013-03-16 14:22:00,
2013-03-16 07:31:00,36.0,33.0,-100.00,NNW,343,1.0,2.0,88,-99.99,,,-99.99,,2013-03-16 14:31:00,
2013-03-16 07:42:00,36.0,33.0,-100.00,NE,42,1.0,2.0,88,-99.99,,,-99.99,,2013-03-16 14:42:00,
2013-03-16 07:51:00,36.0,33.0,-100.00,NW,309,1.0,2.0,88,-99.99,,,-99.99,,2013-03-16 14:51:00,
2013-03-16 08:02:00,35.0,32.0,-100.00,NNW,337,1.0,2.0,88,-99.99,,,-99.99,,2013-03-16 15:02:00,
2013-03-16 08:12:00,35.0,32.0,-100.00,NNE,25,1.0,1.0,88,-99.99,,,-99.99,,2013-03-16 15:12:00,
2013-03-16 08:22:00,36.0,32.0,-100.00,North,1,1.0,2.0,85,-99.99,,,-99.99,,2013-03-16 15:22:00,
2013-03-16 08:32:00,39.0,33.0,-100.00,NNE,15,1.0,3.0,80,-99.99,,,-99.99,,2013-03-16 15:32:00,
2013-03-16 08:42:00,41.0,34.0,-100.00,NNW,346,1.0,1.0,75,-99.99,,,-99.99,,2013-03-16 15:42:00,
2013-03-16 08:52:00,45.0,35.0,-100.00,WNW,300,1.0,1.0,68,-99.99,,,-99.99,,2013-03-16 15:52:00,
2013-03-16 09:02:00,48.0,36.0,-100.00,South,175,1.0,1.0,62,-99.99,,,-99.99,,2013-03-16 16:02:00,
2013-03-16 09:12:00,50.0,31.0,-100.00,South,180,1.0,1.0,47,-99.99,,,-99.99,,2013-03-16 16:12:00,
2013-03-16 09:22:00,51.0,30.0,-100.00,SW,220,1.0,2.0,45,-99.99,,,-99.99,,2013-03-16 16:22:00,
2013-03-16 09:33:00,53.0,30.0,-100.00,SSW,199,1.0,1.0,41,-99.99,,,-99.99,,2013-03-16 16:33:00,
2013-03-16 09:42:00,56.0,29.0,-100.00,South,186,1.0,1.0,35,-99.99,,,-99.99,,2013-03-16 16:42:00,
2013-03-16 09:52:00,59.0,30.0,-100.00,SSE,153,1.0,2.0,33,-99.99,,,-99.99,,2013-03-16 16:52:00,
2013-03-16 10:02:00,60.0,28.0,-100.00,South,179,1.0,3.0,30,-99.99,,,-99.99,,2013-03-16 17:02:00,
2013-03-16 10:12:00,61.0,29.0,-100.00,South,173,2.0,3.0,30,-99.99,,,-99.99,,2013-03-16 17:12:00,
2013-03-16 10:20:00,65.0,13.0,-100.00,WNW,297,4.0,10.0,13,-99.99,,,-99.99,,2013-03-16 17:20:00,
2013-03-16 10:22:00,63.0,27.0,-100.00,South,186,1.0,3.0,25,-99.99,,,-99.99,,2013-03-16 17:22:00,
2013-03-16 10:32:00,63.0,27.0,-100.00,South,186,1.0,3.0,25,-99.99,,,-99.99,,2013-03-16 17:32:00,
2013-03-16 10:42:00,63.0,27.0,-100.00,South,186,1.0,3.0,25,-99.99,,,-99.99,,2013-03-16 17:42:00,
2013-03-16 10:52:00,65.0,13.0,-100.00,WNW,297,4.0,10.0,13,-99.99,,,-99.99,,2013-03-16 17:52:00,
2013-03-16 11:02:00,65.0,13.0,-100.00,WNW,297,4.0,10.0,13,-99.99,,,-99.99,,2013-03-16 18:02:00,
2013-03-16 11:13:00,65.0,13.0,-100.00,WNW,297,4.0,10.0,13,-99.99,,,-99.99,,2013-03-16 18:13:00,
2013-03-16 11:42:00,68.0,15.0,-100.00,WSW,242,3.0,9.0,13,-99.99,,,-99.99,,2013-03-16 18:42:00,
2013-03-16 11:52:00,69.0,18.0,-100.00,WNW,298,3.0,8.0,14,-99.99,,,-99.99,,2013-03-16 18:52:00,
2013-03-16 12:02:00,69.0,18.0,-100.00,South,182,4.0,8.0,14,-99.99,,,-99.99,,2013-03-16 19:02:00,
2013-03-16 12:12:00,69.0,21.0,-100.00,SSW,197,4.0,10.0,16,-99.99,,,-99.99,,2013-03-16 19:12:00,
2013-03-16 12:22:00,70.0,22.0,-100.00,West,278,7.0,13.0,16,-99.99,,,-99.99,,2013-03-16 19:22:00,
2013-03-16 12:32:00,68.0,22.0,-100.00,WNW,295,8.0,16.0,17,-99.99,,,-99.99,,2013-03-16 19:32:00,
2013-03-16 12:42:00,66.0,26.0,-100.00,NNW,328,6.0,16.0,22,-99.99,,,-99.99,,2013-03-16 19:42:00,
2013-03-16 12:52:00,66.0,26.0,-100.00,NNW,328,6.0,16.0,22,-99.99,,,-99.99,,2013-03-16 19:52:00,
2013-03-16 13:02:00,66.0,26.0,-100.00,NNW,328,6.0,16.0,22,-99.99,,,-99.99,,2013-03-16 20:02:00,
2013-03-16 13:12:00,67.0,21.0,-100.00,NNW,347,7.0,11.0,17,-99.99,,,-99.99,,2013-03-16 20:12:00,
2013-03-16 13:21:00,68.0,22.0,-100.00,NNW,334,6.0,11.0,17,-99.99,,,-99.99,,2013-03-16 20:21:00,
2013-03-16 13:32:00,68.0,20.0,-100.00,NW,320,5.0,10.0,16,-99.99,,,-99.99,,2013-03-16 20:32:00,
2013-03-16 13:42:00,69.0,21.0,-100.00,WNW,282,3.0,8.0,16,-99.99,,,-99.99,,2013-03-16 20:42:00,
2013-03-16 13:51:00,69.0,19.0,-100.00,WNW,286,5.0,11.0,15,-99.99,,,-99.99,,2013-03-16 20:51:00,
2013-03-16 14:02:00,69.0,21.0,-100.00,NW,310,6.0,12.0,16,-99.99,,,-99.99,,2013-03-16 21:02:00,
2013-03-16 14:11:00,69.0,24.0,-100.00,WNW,299,6.0,12.0,18,-99.99,,,-99.99,,2013-03-16 21:11:00,
2013-03-16 14:22:00,68.0,25.0,-100.00,NW,314,5.0,9.0,20,-99.99,,,-99.99,,2013-03-16 21:22:00,
2013-03-16 14:32:00,68.0,25.0,-100.00,NW,314,5.0,9.0,20,-99.99,,,-99.99,,2013-03-16 21:32:00,
2013-03-16 14:43:00,68.0,25.0,-100.00,NW,314,5.0,9.0,20,-99.99,,,-99.99,,2013-03-16 21:43:00,
2013-03-16 14:52:00,70.0,26.0,-100.00,WNW,296,4.0,10.0,19,-99.99,,,-99.99,,2013-03-16 21:52:00,
2013-03-16 15:03:00,69.0,22.0,-100.00,West,273,4.0,8.0,17,-99.99,,,-99.99,,2013-03-16 22:03:00,
2013-03-16 15:12:00,70.0,22.0,-100.00,NW,307,6.0,12.0,16,-99.99,,,-99.99,,2013-03-16 22:12:00,
2013-03-16 15:22:00,69.0,22.0,-100.00,NW,309,5.0,13.0,17,-99.99,,,-99.99,,2013-03-16 22:22:00,
2013-03-16 15:32:00,70.0,23.0,-100.00,WNW,299,5.0,9.0,17,-99.99,,,-99.99,,2013-03-16 22:32:00,
2013-03-16 16:22:00,69.0,39.0,-100.00,SW,221,5.0,10.0,33,-99.99,,,-99.99,,2013-03-16 23:22:00,
2013-03-16 16:32:00,69.0,33.0,-100.00,WNW,293,4.0,9.0,26,-99.99,,,-99.99,,2013-03-16 23:32:00,
2013-03-16 16:42:00,69.0,33.0,-100.00,NW,317,4.0,9.0,26,-99.99,,,-99.99,,2013-03-16 23:42:00,
2013-03-16 16:52:00,69.0,36.0,-100.00,NW,307,4.0,9.0,30,-99.99,,,-99.99,,2013-03-16 23:52:00,
2013-03-16 17:01:00,68.0,39.0,-100.00,WSW,243,5.0,11.0,35,-99.99,,,-99.99,,2013-03-17 00:01:00,
2013-03-16 17:12:00,67.0,41.0,-100.00,SW,222,6.0,9.0,39,-99.99,,,-99.99,,2013-03-17 00:12:00,
2013-03-16 17:21:00,68.0,41.0,-100.00,SW,236,5.0,8.0,38,-99.99,,,-99.99,,2013-03-17 00:21:00,
2013-03-16 17:32:00,68.0,41.0,-100.00,WSW,253,4.0,7.0,38,-99.99,,,-99.99,,2013-03-17 00:32:00,
2013-03-16 17:42:00,68.0,41.0,-100.00,WSW,253,4.0,7.0,38,-99.99,,,-99.99,,2013-03-17 00:42:00,
2013-03-16 17:51:00,66.0,40.0,-100.00,WNW,294,4.0,9.0,39,-99.99,,,-99.99,,2013-03-17 00:51:00,
2013-03-16 18:02:00,66.0,42.0,-100.00,WNW,299,4.0,8.0,42,-99.99,,,-99.99,,2013-03-17 01:02:00,
2013-03-16 18:12:00,64.0,43.0,-100.00,WNW,299,6.0,9.0,46,-99.99,,,-99.99,,2013-03-17 01:12:00,
2013-03-16 18:22:00,64.0,44.0,-100.00,NW,306,5.0,10.0,48,-99.99,,,-99.99,,2013-03-17 01:22:00,
2013-03-16 18:32:00,63.0,45.0,-100.00,NW,314,4.0,8.0,51,-99.99,,,-99.99,,2013-03-17 01:32:00,
2013-03-16 18:42:00,63.0,45.0,-100.00,NW,314,4.0,8.0,51,-99.99,,,-99.99,,2013-03-17 01:42:00,
2013-03-16 18:52:00,61.0,44.0,-100.00,WNW,288,3.0,6.0,53,-99.99,,,-99.99,,2013-03-17 01:52:00,
2013-03-16 19:02:00,60.0,44.0,-100.00,WNW,293,3.0,5.0,55,-99.99,,,-99.99,,2013-03-17 02:02:00,
2013-03-16 19:12:00,59.0,44.0,-100.00,WNW,295,3.0,5.0,58,-99.99,,,-99.99,,2013-03-17 02:12:00,
2013-03-16 19:22:00,59.0,44.0,-100.00,WNW,295,3.0,5.0,58,-99.99,,,-99.99,,2013-03-17 02:22:00,
2013-03-16 19:32:00,57.0,45.0,-100.00,West,263,1.0,2.0,63,-99.99,,,-99.99,,2013-03-17 02:32:00,
2013-03-16 19:42:00,56.0,45.0,-100.00,SSE,166,1.0,2.0,66,-99.99,,,-99.99,,2013-03-17 02:42:00,
2013-03-16 19:52:00,55.0,45.0,-100.00,South,173,1.0,2.0,69,-99.99,,,-99.99,,2013-03-17 02:52:00,
2013-03-16 20:02:00,53.0,44.0,-100.00,SE,133,1.0,1.0,72,-99.99,,,-99.99,,2013-03-17 03:02:00,
2013-03-16 20:12:00,53.0,44.0,-100.00,SW,232,1.0,1.0,72,-99.99,,,-99.99,,2013-03-17 03:12:00,
2013-03-16 20:22:00,51.0,44.0,-100.00,South,170,1.0,2.0,78,-99.99,,,-99.99,,2013-03-17 03:22:00,
2013-03-16 20:33:00,49.0,43.0,-100.00,South,171,1.0,1.0,80,-99.99,,,-99.99,,2013-03-17 03:33:00,
2013-03-16 20:42:00,49.0,43.0,-100.00,South,189,1.0,2.0,80,-99.99,,,-99.99,,2013-03-17 03:42:00,
2013-03-16 20:52:00,49.0,43.0,-100.00,SE,132,1.0,1.0,80,-99.99,,,-99.99,,2013-03-17 03:52:00,
2013-03-16 21:02:00,48.0,42.0,-100.00,NE,38,1.0,1.0,81,-99.99,,,-99.99,,2013-03-17 04:02:00,
2013-03-16 21:12:00,47.0,42.0,-100.00,SSE,164,1.0,1.0,82,-99.99,,,-99.99,,2013-03-17 04:12:00,
2013-03-16 21:32:00,45.0,41.0,-100.00,NNE,18,1.0,2.0,85,-99.99,,,-99.99,,2013-03-17 04:32:00,
2013-03-16 21:42:00,45.0,41.0,-100.00,SE,127,1.0,1.0,86,-99.99,,,-99.99,,2013-03-17 04:42:00,
2013-03-16 21:53:00,45.0,41.0,-100.00,SW,222,1.0,2.0,87,-99.99,,,-99.99,,2013-03-17 04:53:00,
2013-03-16 22:02:00,44.0,41.0,-100.00,North,9,1.0,2.0,88,-99.99,,,-99.99,,2013-03-17 05:02:00,
2013-03-16 22:12:00,43.0,40.0,-100.00,SSE,152,1.0,2.0,90,-99.99,,,-99.99,,2013-03-17 05:12:00,
2013-03-16 22:21:00,43.0,40.0,-100.00,WSW,240,1.0,1.0,90,-99.99,,,-99.99,,2013-03-17 05:21:00,
2013-03-16 22:32:00,42.0,39.0,-100.00,NNW,347,1.0,1.0,90,-99.99,,,-99.99,,2013-03-17 05:32:00,
2013-03-16 22:42:00,42.0,40.0,-100.00,NNW,348,1.0,1.0,91,-99.99,,,-99.99,,2013-03-17 05:42:00,
2013-03-16 22:51:00,41.0,39.0,-100.00,NNW,337,1.0,1.0,91,-99.99,,,-99.99,,2013-03-17 05:51:00,
2013-03-16 23:01:00,41.0,39.0,-100.00,NNW,334,1.0,1.0,91,-99.99,,,-99.99,,2013-03-17 06:01:00,
2013-03-16 23:12:00,40.0,38.0,-100.00,NNW,334,1.0,1.0,91,-99.99,,,-99.99,,2013-03-17 06:12:00,
2013-03-16 23:22:00,40.0,38.0,-100.00,NNW,327,1.0,1.0,91,-99.99,,,-99.99,,2013-03-17 06:22:00,
2013-03-16 23:32:00,39.0,37.0,-100.00,SW,234,1.0,1.0,92,-99.99,,,-99.99,,2013-03-17 06:32:00,
2013-03-16 23:42:00,39.0,37.0,-100.00,NW,316,1.0,1.0,92,-99.99,,,-99.99,,2013-03-17 06:42:00,
2013-03-16 23:52:00,38.0,36.0,-100.00,NNW,346,1.0,1.0,92,-99.99,,,-99.99,,2013-03-17 06:52:00,